sensor_id;sensor_type;location;lat;lon;timestamp;pressure;altitude;pressure_sealevel;temperature;humidity
20710;BME280;10516;51.518;9.864;2023-04-27T00:01:47;99107.31;;;5.32;64.97
20710;BME280;10516;51.518;9.864;2023-04-27T00:04:13;99102.38;;;5.43;65.26
20710;BME280;10516;51.518;9.864;2023-04-27T00:06:38;99099.13;;;5.41;65.65
20710;BME280;10516;51.518;9.864;2023-04-27T00:09:03;99099.34;;;5.46;65.55
20710;BME280;10516;51.518;9.864;2023-04-27T00:11:32;99095.88;;;5.45;65.71
20710;BME280;10516;51.518;9.864;2023-04-27T00:13:57;99107.88;;;5.48;65.43
20710;BME280;10516;51.518;9.864;2023-04-27T00:16:23;99097.06;;;5.49;66.37
20710;BME280;10516;51.518;9.864;2023-04-27T00:18:48;99093.81;;;5.47;66.14
20710;BME280;10516;51.518;9.864;2023-04-27T00:21:13;99101.97;;;5.46;66.04
20710;BME280;10516;51.518;9.864;2023-04-27T00:23:38;99094.66;;;5.41;66.48
20710;BME280;10516;51.518;9.864;2023-04-27T00:26:04;99101.78;;;5.41;66.88
20710;BME280;10516;51.518;9.864;2023-04-27T00:28:29;99096.81;;;5.57;65.99
20710;BME280;10516;51.518;9.864;2023-04-27T00:30:54;99104.59;;;5.52;66.19
20710;BME280;10516;51.518;9.864;2023-04-27T00:33:20;99095.81;;;5.58;66.78
20710;BME280;10516;51.518;9.864;2023-04-27T00:35:45;99094.19;;;5.57;66.64
20710;BME280;10516;51.518;9.864;2023-04-27T00:38:10;99097.22;;;5.61;66.54
20710;BME280;10516;51.518;9.864;2023-04-27T00:40:36;99086.84;;;5.59;66.39
20710;BME280;10516;51.518;9.864;2023-04-27T00:43:01;99088.88;;;5.57;66.55
20710;BME280;10516;51.518;9.864;2023-04-27T00:45:27;99092.97;;;5.53;66.41
20710;BME280;10516;51.518;9.864;2023-04-27T00:47:52;99092.34;;;5.58;66.83
20710;BME280;10516;51.518;9.864;2023-04-27T00:50:19;99095.03;;;5.51;66.31
20710;BME280;10516;51.518;9.864;2023-04-27T00:52:48;99097.66;;;5.51;66.82
20710;BME280;10516;51.518;9.864;2023-04-27T00:55:14;99101.34;;;5.50;66.92
20710;BME280;10516;51.518;9.864;2023-04-27T00:57:39;99100.31;;;5.51;67.22
20710;BME280;10516;51.518;9.864;2023-04-27T01:00:04;99098.72;;;5.44;67.48
20710;BME280;10516;51.518;9.864;2023-04-27T01:02:31;99090.81;;;5.37;67.58
20710;BME280;10516;51.518;9.864;2023-04-27T01:04:56;99093.41;;;5.50;67.68
20710;BME280;10516;51.518;9.864;2023-04-27T01:07:24;99099.06;;;5.60;67.42
20710;BME280;10516;51.518;9.864;2023-04-27T01:09:50;99100.03;;;5.66;67.61
20710;BME280;10516;51.518;9.864;2023-04-27T01:12:24;99098.25;;;5.60;67.40
20710;BME280;10516;51.518;9.864;2023-04-27T01:14:50;99100.53;;;5.50;67.59
20710;BME280;10516;51.518;9.864;2023-04-27T01:17:15;99101.53;;;5.49;67.91
20710;BME280;10516;51.518;9.864;2023-04-27T01:19:42;99100.72;;;5.55;68.06
20710;BME280;10516;51.518;9.864;2023-04-27T01:22:08;99098.88;;;5.55;67.94
20710;BME280;10516;51.518;9.864;2023-04-27T01:24:34;99098.06;;;5.61;67.73
20710;BME280;10516;51.518;9.864;2023-04-27T01:26:59;99096.81;;;5.57;68.16
20710;BME280;10516;51.518;9.864;2023-04-27T01:29:25;99096.41;;;5.60;67.40
20710;BME280;10516;51.518;9.864;2023-04-27T01:31:50;99095.59;;;5.60;67.36
20710;BME280;10516;51.518;9.864;2023-04-27T01:34:16;99103.75;;;5.58;68.02
20710;BME280;10516;51.518;9.864;2023-04-27T01:36:41;99092.94;;;5.60;67.62
20710;BME280;10516;51.518;9.864;2023-04-27T01:39:06;99107.25;;;5.52;67.78
20710;BME280;10516;51.518;9.864;2023-04-27T01:41:33;99107.59;;;5.62;68.12
20710;BME280;10516;51.518;9.864;2023-04-27T01:43:59;99115.78;;;5.61;68.45
20710;BME280;10516;51.518;9.864;2023-04-27T01:46:24;99119.22;;;5.61;68.30
20710;BME280;10516;51.518;9.864;2023-04-27T01:48:49;99117.22;;;5.57;68.55
20710;BME280;10516;51.518;9.864;2023-04-27T01:51:15;99113.34;;;5.53;68.13
20710;BME280;10516;51.518;9.864;2023-04-27T01:53:40;99122.53;;;5.50;68.48
20710;BME280;10516;51.518;9.864;2023-04-27T01:56:05;99120.91;;;5.49;68.13
20710;BME280;10516;51.518;9.864;2023-04-27T01:58:31;99127.97;;;5.62;68.25
20710;BME280;10516;51.518;9.864;2023-04-27T02:00:56;99119.22;;;5.61;67.93
20710;BME280;10516;51.518;9.864;2023-04-27T02:03:21;99123.13;;;5.52;68.09
20710;BME280;10516;51.518;9.864;2023-04-27T02:05:46;99134.50;;;5.59;67.86
20710;BME280;10516;51.518;9.864;2023-04-27T02:08:12;99129.63;;;5.56;68.13
20710;BME280;10516;51.518;9.864;2023-04-27T02:10:37;99140.22;;;5.56;68.44
20710;BME280;10516;51.518;9.864;2023-04-27T02:13:02;99139.81;;;5.53;67.54
20710;BME280;10516;51.518;9.864;2023-04-27T02:15:28;99141.25;;;5.49;67.92
20710;BME280;10516;51.518;9.864;2023-04-27T02:17:53;99133.72;;;5.52;67.88
20710;BME280;10516;51.518;9.864;2023-04-27T02:20:18;99136.19;;;5.47;68.11
20710;BME280;10516;51.518;9.864;2023-04-27T02:22:43;99140.66;;;5.47;68.53
20710;BME280;10516;51.518;9.864;2023-04-27T02:25:09;99143.91;;;5.42;68.29
20710;BME280;10516;51.518;9.864;2023-04-27T02:27:39;99144.53;;;5.44;68.25
20710;BME280;10516;51.518;9.864;2023-04-27T02:30:05;99147.41;;;5.36;68.07
20710;BME280;10516;51.518;9.864;2023-04-27T02:32:30;99152.91;;;5.35;68.07
20710;BME280;10516;51.518;9.864;2023-04-27T02:34:56;99146.81;;;5.27;68.01
20710;BME280;10516;51.518;9.864;2023-04-27T02:37:21;99149.44;;;5.34;68.56
20710;BME280;10516;51.518;9.864;2023-04-27T02:39:46;99152.91;;;5.35;68.43
20710;BME280;10516;51.518;9.864;2023-04-27T02:42:11;99154.13;;;5.32;68.24
20710;BME280;10516;51.518;9.864;2023-04-27T02:44:37;99161.03;;;5.33;68.02
20710;BME280;10516;51.518;9.864;2023-04-27T02:47:02;99165.53;;;5.39;68.33
20710;BME280;10516;51.518;9.864;2023-04-27T02:49:27;99163.66;;;5.40;67.91
20710;BME280;10516;51.518;9.864;2023-04-27T02:51:52;99169.38;;;5.43;67.83
20710;BME280;10516;51.518;9.864;2023-04-27T02:54:17;99161.44;;;5.43;67.83
20710;BME280;10516;51.518;9.864;2023-04-27T02:56:43;99156.53;;;5.40;68.73
20710;BME280;10516;51.518;9.864;2023-04-27T02:59:08;99151.69;;;5.37;68.68
20710;BME280;10516;51.518;9.864;2023-04-27T03:01:33;99167.56;;;5.37;68.48
20710;BME280;10516;51.518;9.864;2023-04-27T03:03:58;99172.66;;;5.32;68.45
20710;BME280;10516;51.518;9.864;2023-04-27T03:06:24;99170.41;;;5.36;68.40
20710;BME280;10516;51.518;9.864;2023-04-27T03:08:49;99171.22;;;5.29;68.57
20710;BME280;10516;51.518;9.864;2023-04-27T03:11:14;99170.84;;;5.26;68.76
20710;BME280;10516;51.518;9.864;2023-04-27T03:13:40;99172.88;;;5.30;68.47
20710;BME280;10516;51.518;9.864;2023-04-27T03:16:08;99182.88;;;5.22;68.83
20710;BME280;10516;51.518;9.864;2023-04-27T03:18:35;99172.69;;;5.19;68.72
20710;BME280;10516;51.518;9.864;2023-04-27T03:21:07;99176.75;;;5.21;69.49
20710;BME280;10516;51.518;9.864;2023-04-27T03:23:33;99174.72;;;5.17;68.54
20710;BME280;10516;51.518;9.864;2023-04-27T03:25:58;99169.44;;;5.17;68.63
20710;BME280;10516;51.518;9.864;2023-04-27T03:28:23;99166.56;;;5.12;69.12
20710;BME280;10516;51.518;9.864;2023-04-27T03:30:49;99164.75;;;5.12;68.50
20710;BME280;10516;51.518;9.864;2023-04-27T03:33:14;99166.56;;;5.12;68.56
20710;BME280;10516;51.518;9.864;2023-04-27T03:35:40;99172.69;;;5.06;68.80
20710;BME280;10516;51.518;9.864;2023-04-27T03:38:05;99178.81;;;5.06;69.10
20710;BME280;10516;51.518;9.864;2023-04-27T03:40:30;99167.63;;;5.04;68.90
20710;BME280;10516;51.518;9.864;2023-04-27T03:42:55;99169.84;;;5.07;69.05
20710;BME280;10516;51.518;9.864;2023-04-27T03:45:20;99181.22;;;5.14;68.61
20710;BME280;10516;51.518;9.864;2023-04-27T03:47:46;99174.91;;;5.09;68.39
20710;BME280;10516;51.518;9.864;2023-04-27T03:50:11;99169.00;;;5.13;68.60
20710;BME280;10516;51.518;9.864;2023-04-27T03:52:37;99173.31;;;5.01;68.83
20710;BME280;10516;51.518;9.864;2023-04-27T03:55:02;99172.91;;;4.85;69.56
20710;BME280;10516;51.518;9.864;2023-04-27T03:57:28;99172.47;;;5.07;68.95
20710;BME280;10516;51.518;9.864;2023-04-27T03:59:53;99173.31;;;5.08;69.28
20710;BME280;10516;51.518;9.864;2023-04-27T04:02:18;99165.97;;;5.10;69.07
20710;BME280;10516;51.518;9.864;2023-04-27T04:04:44;99175.13;;;5.07;68.74
20710;BME280;10516;51.518;9.864;2023-04-27T04:07:09;99172.28;;;4.96;69.12
20710;BME280;10516;51.518;9.864;2023-04-27T04:09:34;99178.00;;;4.93;69.02
20710;BME280;10516;51.518;9.864;2023-04-27T04:12:00;99168.41;;;4.92;69.75
20710;BME280;10516;51.518;9.864;2023-04-27T04:14:26;99168.22;;;5.00;69.27
20710;BME280;10516;51.518;9.864;2023-04-27T04:16:51;99173.91;;;5.03;69.21
20710;BME280;10516;51.518;9.864;2023-04-27T04:19:16;99166.38;;;4.94;69.25
20710;BME280;10516;51.518;9.864;2023-04-27T04:21:42;99172.72;;;4.93;69.89
20710;BME280;10516;51.518;9.864;2023-04-27T04:24:07;99171.28;;;4.84;69.50
20710;BME280;10516;51.518;9.864;2023-04-27T04:26:34;99173.91;;;4.84;69.10
20710;BME280;10516;51.518;9.864;2023-04-27T04:28:59;99166.19;;;4.82;69.46
20710;BME280;10516;51.518;9.864;2023-04-27T04:31:25;99178.00;;;4.86;69.12
20710;BME280;10516;51.518;9.864;2023-04-27T04:33:50;99173.31;;;4.88;69.05
20710;BME280;10516;51.518;9.864;2023-04-27T04:36:15;99181.03;;;4.90;69.00
20710;BME280;10516;51.518;9.864;2023-04-27T04:38:41;99190.78;;;4.83;68.90
20710;BME280;10516;51.518;9.864;2023-04-27T04:41:06;99181.63;;;4.72;69.16
20710;BME280;10516;51.518;9.864;2023-04-27T04:43:32;99188.78;;;4.72;69.61
20710;BME280;10516;51.518;9.864;2023-04-27T04:45:57;99185.50;;;4.70;69.71
20710;BME280;10516;51.518;9.864;2023-04-27T04:48:22;99189.97;;;4.49;69.87
20710;BME280;10516;51.518;9.864;2023-04-27T04:50:48;99192.72;;;4.15;70.75
20710;BME280;10516;51.518;9.864;2023-04-27T04:53:13;99187.66;;;4.14;70.90
20710;BME280;10516;51.518;9.864;2023-04-27T04:55:38;99191.69;;;4.10;71.43
20710;BME280;10516;51.518;9.864;2023-04-27T04:58:03;99197.34;;;4.00;71.77
20710;BME280;10516;51.518;9.864;2023-04-27T05:00:29;99202.84;;;3.99;72.05
20710;BME280;10516;51.518;9.864;2023-04-27T05:02:54;99205.34;;;4.20;71.47
20710;BME280;10516;51.518;9.864;2023-04-27T05:05:19;99206.16;;;4.27;71.50
20710;BME280;10516;51.518;9.864;2023-04-27T05:07:45;99198.06;;;4.35;71.60
20710;BME280;10516;51.518;9.864;2023-04-27T05:10:10;99196.66;;;4.39;71.10
20710;BME280;10516;51.518;9.864;2023-04-27T05:12:36;99201.94;;;4.39;71.14
20710;BME280;10516;51.518;9.864;2023-04-27T05:15:01;99198.69;;;4.56;70.77
20710;BME280;10516;51.518;9.864;2023-04-27T05:17:27;99208.50;;;4.63;70.52
20710;BME280;10516;51.518;9.864;2023-04-27T05:19:52;99212.56;;;4.65;70.58
20710;BME280;10516;51.518;9.864;2023-04-27T05:22:17;99215.22;;;4.65;70.57
20710;BME280;10516;51.518;9.864;2023-04-27T05:24:43;99224.13;;;4.57;71.13
20710;BME280;10516;51.518;9.864;2023-04-27T05:27:08;99229.25;;;4.79;70.64
20710;BME280;10516;51.518;9.864;2023-04-27T05:29:33;99230.28;;;4.84;70.35
20710;BME280;10516;51.518;9.864;2023-04-27T05:31:58;99239.22;;;4.96;70.69
20710;BME280;10516;51.518;9.864;2023-04-27T05:34:24;99238.00;;;4.92;69.85
20710;BME280;10516;51.518;9.864;2023-04-27T05:36:49;99253.06;;;4.98;70.31
20710;BME280;10516;51.518;9.864;2023-04-27T05:39:15;99259.78;;;4.94;70.30
20710;BME280;10516;51.518;9.864;2023-04-27T05:41:41;99267.25;;;4.65;71.38
20710;BME280;10516;51.518;9.864;2023-04-27T05:44:06;99257.22;;;3.87;74.68
20710;BME280;10516;51.518;9.864;2023-04-27T05:46:31;99260.72;;;3.59;75.81
20710;BME280;10516;51.518;9.864;2023-04-27T05:48:57;99253.88;;;3.71;76.41
20710;BME280;10516;51.518;9.864;2023-04-27T05:51:22;99258.44;;;4.38;73.45
20710;BME280;10516;51.518;9.864;2023-04-27T05:53:47;99246.59;;;3.80;73.39
20710;BME280;10516;51.518;9.864;2023-04-27T05:56:12;99257.16;;;3.80;74.17
20710;BME280;10516;51.518;9.864;2023-04-27T05:58:38;99255.09;;;3.41;75.07
20710;BME280;10516;51.518;9.864;2023-04-27T06:01:03;99249.81;;;3.41;75.63
20710;BME280;10516;51.518;9.864;2023-04-27T06:03:29;99248.06;;;3.89;74.83
20710;BME280;10516;51.518;9.864;2023-04-27T06:05:58;99251.09;;;4.27;74.31
20710;BME280;10516;51.518;9.864;2023-04-27T06:08:23;99254.94;;;4.31;74.08
20710;BME280;10516;51.518;9.864;2023-04-27T06:10:49;99261.56;;;4.68;72.26
20710;BME280;10516;51.518;9.864;2023-04-27T06:13:14;99257.28;;;4.53;72.62
20710;BME280;10516;51.518;9.864;2023-04-27T06:15:40;99262.84;;;5.11;70.52
20710;BME280;10516;51.518;9.864;2023-04-27T06:18:05;99261.09;;;4.38;72.45
20710;BME280;10516;51.518;9.864;2023-04-27T06:20:30;99262.06;;;4.30;74.18
20710;BME280;10516;51.518;9.864;2023-04-27T06:22:56;99261.59;;;4.14;74.75
20710;BME280;10516;51.518;9.864;2023-04-27T06:25:21;99266.28;;;4.12;73.51
20710;BME280;10516;51.518;9.864;2023-04-27T06:27:47;99268.25;;;4.03;74.21
20710;BME280;10516;51.518;9.864;2023-04-27T06:30:12;99283.06;;;4.45;74.06
20710;BME280;10516;51.518;9.864;2023-04-27T06:32:37;99282.47;;;4.49;72.74
20710;BME280;10516;51.518;9.864;2023-04-27T06:35:03;99270.59;;;3.85;74.45
20710;BME280;10516;51.518;9.864;2023-04-27T06:37:28;99272.38;;;4.12;75.14
20710;BME280;10516;51.518;9.864;2023-04-27T06:39:54;99273.66;;;4.29;75.11
20710;BME280;10516;51.518;9.864;2023-04-27T06:42:19;99282.78;;;5.07;72.33
20710;BME280;10516;51.518;9.864;2023-04-27T06:44:44;99284.75;;;4.79;73.16
20710;BME280;10516;51.518;9.864;2023-04-27T06:47:09;99284.66;;;4.39;75.69
20710;BME280;10516;51.518;9.864;2023-04-27T06:49:35;99284.94;;;4.04;75.74
20710;BME280;10516;51.518;9.864;2023-04-27T06:52:00;99282.19;;;4.31;75.95
20710;BME280;10516;51.518;9.864;2023-04-27T06:54:26;99279.63;;;4.57;74.47
20710;BME280;10516;51.518;9.864;2023-04-27T06:56:51;99278.31;;;4.27;75.36
20710;BME280;10516;51.518;9.864;2023-04-27T06:59:18;99276.22;;;4.10;75.36
20710;BME280;10516;51.518;9.864;2023-04-27T07:01:43;99277.28;;;4.22;75.47
20710;BME280;10516;51.518;9.864;2023-04-27T07:04:09;99276.16;;;4.50;74.80
20710;BME280;10516;51.518;9.864;2023-04-27T07:06:34;99278.69;;;4.18;75.12
20710;BME280;10516;51.518;9.864;2023-04-27T07:09:00;99281.81;;;4.34;75.63
20710;BME280;10516;51.518;9.864;2023-04-27T07:11:25;99283.34;;;4.89;74.18
20710;BME280;10516;51.518;9.864;2023-04-27T07:13:50;99278.88;;;4.83;74.84
20710;BME280;10516;51.518;9.864;2023-04-27T07:16:16;99273.00;;;4.94;74.70
20710;BME280;10516;51.518;9.864;2023-04-27T07:18:41;99283.94;;;4.65;73.64
20710;BME280;10516;51.518;9.864;2023-04-27T07:21:06;99288.97;;;4.47;73.44
20710;BME280;10516;51.518;9.864;2023-04-27T07:23:32;99291.16;;;4.43;72.63
20710;BME280;10516;51.518;9.864;2023-04-27T07:25:57;99299.31;;;4.48;72.42
20710;BME280;10516;51.518;9.864;2023-04-27T07:28:23;99290.47;;;4.76;71.51
20710;BME280;10516;51.518;9.864;2023-04-27T07:30:48;99280.34;;;5.05;71.33
20710;BME280;10516;51.518;9.864;2023-04-27T07:33:13;99282.97;;;5.05;71.14
20710;BME280;10516;51.518;9.864;2023-04-27T07:35:38;99283.81;;;5.19;71.01
20710;BME280;10516;51.518;9.864;2023-04-27T07:38:04;99291.09;;;4.78;68.36
20710;BME280;10516;51.518;9.864;2023-04-27T07:40:29;99290.50;;;4.82;68.01
20710;BME280;10516;51.518;9.864;2023-04-27T07:42:56;99289.31;;;5.17;69.14
20710;BME280;10516;51.518;9.864;2023-04-27T07:45:22;99289.22;;;4.65;67.29
20710;BME280;10516;51.518;9.864;2023-04-27T07:47:52;99292.44;;;4.54;68.98
20710;BME280;10516;51.518;9.864;2023-04-27T07:50:17;99280.09;;;5.72;70.55
20710;BME280;10516;51.518;9.864;2023-04-27T07:52:48;99294.13;;;5.99;67.06
20710;BME280;10516;51.518;9.864;2023-04-27T07:55:13;99297.41;;;4.96;67.05
20710;BME280;10516;51.518;9.864;2023-04-27T07:57:38;99297.66;;;5.47;69.60
20710;BME280;10516;51.518;9.864;2023-04-27T08:00:05;99296.88;;;6.30;68.54
20710;BME280;10516;51.518;9.864;2023-04-27T08:02:33;99288.69;;;5.48;65.83
20710;BME280;10516;51.518;9.864;2023-04-27T08:04:58;99295.56;;;5.82;68.30
20710;BME280;10516;51.518;9.864;2023-04-27T08:07:23;99297.00;;;5.78;66.42
20710;BME280;10516;51.518;9.864;2023-04-27T08:09:52;99299.28;;;5.61;67.18
20710;BME280;10516;51.518;9.864;2023-04-27T08:12:17;99300.69;;;5.44;66.53
20710;BME280;10516;51.518;9.864;2023-04-27T08:14:43;99294.00;;;5.42;66.59
20710;BME280;10516;51.518;9.864;2023-04-27T08:17:08;99281.97;;;5.59;67.57
20710;BME280;10516;51.518;9.864;2023-04-27T08:19:33;99280.53;;;5.69;65.91
20710;BME280;10516;51.518;9.864;2023-04-27T08:21:59;99285.00;;;5.69;66.53
20710;BME280;10516;51.518;9.864;2023-04-27T08:24:24;99284.59;;;5.85;67.05
20710;BME280;10516;51.518;9.864;2023-04-27T08:26:50;99288.22;;;6.03;67.20
20710;BME280;10516;51.518;9.864;2023-04-27T08:29:15;99285.50;;;6.17;65.90
20710;BME280;10516;51.518;9.864;2023-04-27T08:31:40;99274.25;;;6.72;66.78
20710;BME280;10516;51.518;9.864;2023-04-27T08:34:05;99278.13;;;6.32;64.77
20710;BME280;10516;51.518;9.864;2023-04-27T08:36:31;99277.72;;;6.72;66.19
20710;BME280;10516;51.518;9.864;2023-04-27T08:38:56;99280.41;;;6.66;64.05
20710;BME280;10516;51.518;9.864;2023-04-27T08:41:22;99265.09;;;6.68;64.90
20710;BME280;10516;51.518;9.864;2023-04-27T08:43:48;99273.09;;;6.61;64.82
20710;BME280;10516;51.518;9.864;2023-04-27T08:46:18;99266.50;;;6.70;64.12
20710;BME280;10516;51.518;9.864;2023-04-27T08:48:44;99256.38;;;6.92;63.16
20710;BME280;10516;51.518;9.864;2023-04-27T08:51:10;99269.53;;;6.36;62.29
20710;BME280;10516;51.518;9.864;2023-04-27T08:53:38;99267.75;;;6.68;64.17
20710;BME280;10516;51.518;9.864;2023-04-27T08:56:10;99265.97;;;7.85;63.66
20710;BME280;10516;51.518;9.864;2023-04-27T08:58:35;99267.16;;;7.22;61.23
20710;BME280;10516;51.518;9.864;2023-04-27T09:01:03;99261.09;;;7.64;64.28
20710;BME280;10516;51.518;9.864;2023-04-27T09:03:29;99252.69;;;8.03;63.47
20710;BME280;10516;51.518;9.864;2023-04-27T09:05:55;99252.84;;;7.90;62.33
20710;BME280;10516;51.518;9.864;2023-04-27T09:08:20;99256.34;;;7.66;60.57
20710;BME280;10516;51.518;9.864;2023-04-27T09:10:46;99263.88;;;8.60;62.01
20710;BME280;10516;51.518;9.864;2023-04-27T09:13:11;99257.69;;;8.48;60.42
20710;BME280;10516;51.518;9.864;2023-04-27T09:15:40;99265.03;;;8.34;58.80
20710;BME280;10516;51.518;9.864;2023-04-27T09:18:06;99262.38;;;8.64;60.70
20710;BME280;10516;51.518;9.864;2023-04-27T09:20:41;99266.44;;;8.66;58.86
20710;BME280;10516;51.518;9.864;2023-04-27T09:23:06;99259.19;;;9.15;60.30
20710;BME280;10516;51.518;9.864;2023-04-27T09:25:32;99272.97;;;9.23;59.57
20710;BME280;10516;51.518;9.864;2023-04-27T09:27:58;99270.31;;;9.23;59.05
20710;BME280;10516;51.518;9.864;2023-04-27T09:30:24;99263.00;;;9.19;58.97
20710;BME280;10516;51.518;9.864;2023-04-27T09:32:53;99264.38;;;9.10;58.72
20710;BME280;10516;51.518;9.864;2023-04-27T09:35:24;99257.84;;;8.94;57.27
20710;BME280;10516;51.518;9.864;2023-04-27T09:37:50;99258.81;;;9.11;58.66
20710;BME280;10516;51.518;9.864;2023-04-27T09:40:19;99261.31;;;8.94;59.04
20710;BME280;10516;51.518;9.864;2023-04-27T09:42:45;99256.16;;;8.70;56.50
20710;BME280;10516;51.518;9.864;2023-04-27T09:45:10;99251.41;;;9.01;58.02
20710;BME280;10516;51.518;9.864;2023-04-27T09:47:35;99253.09;;;8.84;57.57
20710;BME280;10516;51.518;9.864;2023-04-27T09:50:01;99253.16;;;9.19;57.74
20710;BME280;10516;51.518;9.864;2023-04-27T09:52:27;99251.53;;;9.18;56.59
20710;BME280;10516;51.518;9.864;2023-04-27T09:54:52;99249.69;;;9.42;57.25
20710;BME280;10516;51.518;9.864;2023-04-27T09:57:38;99240.22;;;9.34;55.51
20710;BME280;10516;51.518;9.864;2023-04-27T10:00:09;99247.97;;;9.82;56.16
20710;BME280;10516;51.518;9.864;2023-04-27T10:05:36;99241.13;;;9.74;55.53
20710;BME280;10516;51.518;9.864;2023-04-27T10:08:04;99235.34;;;9.77;54.76
20710;BME280;10516;51.518;9.864;2023-04-27T10:10:40;99241.22;;;9.91;56.26
20710;BME280;10516;51.518;9.864;2023-04-27T10:13:05;99229.91;;;9.38;52.07
20710;BME280;10516;51.518;9.864;2023-04-27T10:15:31;99241.34;;;9.27;52.67
20710;BME280;10516;51.518;9.864;2023-04-27T10:18:01;99229.31;;;9.59;54.91
20710;BME280;10516;51.518;9.864;2023-04-27T10:20:28;99229.94;;;10.01;54.08
20710;BME280;10516;51.518;9.864;2023-04-27T10:22:53;99225.94;;;9.87;54.55
20710;BME280;10516;51.518;9.864;2023-04-27T10:25:23;99233.50;;;10.29;54.70
20710;BME280;10516;51.518;9.864;2023-04-27T10:27:53;99231.94;;;10.45;54.42
20710;BME280;10516;51.518;9.864;2023-04-27T10:30:20;99229.03;;;10.46;53.68
20710;BME280;10516;51.518;9.864;2023-04-27T10:32:49;99225.03;;;10.61;52.75
20710;BME280;10516;51.518;9.864;2023-04-27T10:35:15;99226.19;;;10.81;52.41
20710;BME280;10516;51.518;9.864;2023-04-27T10:37:41;99224.19;;;10.88;51.45
20710;BME280;10516;51.518;9.864;2023-04-27T10:40:08;99222.34;;;11.05;51.21
20710;BME280;10516;51.518;9.864;2023-04-27T10:42:46;99222.13;;;11.07;51.06
20710;BME280;10516;51.518;9.864;2023-04-27T10:45:13;99216.13;;;11.00;49.81
20710;BME280;10516;51.518;9.864;2023-04-27T10:47:41;99216.44;;;11.37;50.86
20710;BME280;10516;51.518;9.864;2023-04-27T10:50:07;99223.97;;;11.23;51.95
20710;BME280;10516;51.518;9.864;2023-04-27T10:52:35;99214.91;;;11.41;50.53
20710;BME280;10516;51.518;9.864;2023-04-27T10:55:11;99219.69;;;11.39;51.45
20710;BME280;10516;51.518;9.864;2023-04-27T10:57:44;99210.38;;;11.08;49.42
20710;BME280;10516;51.518;9.864;2023-04-27T11:00:09;99197.00;;;11.41;51.00
20710;BME280;10516;51.518;9.864;2023-04-27T11:02:38;99204.63;;;11.32;51.24
20710;BME280;10516;51.518;9.864;2023-04-27T11:05:03;99197.41;;;11.16;51.97
20710;BME280;10516;51.518;9.864;2023-04-27T11:07:39;99194.59;;;11.40;50.11
20710;BME280;10516;51.518;9.864;2023-04-27T11:10:04;99195.53;;;11.33;50.21
20710;BME280;10516;51.518;9.864;2023-04-27T11:12:31;99193.22;;;11.04;50.79
20710;BME280;10516;51.518;9.864;2023-04-27T11:14:57;99198.88;;;10.91;49.79
20710;BME280;10516;51.518;9.864;2023-04-27T11:17:31;99205.75;;;11.03;49.76
20710;BME280;10516;51.518;9.864;2023-04-27T11:19:57;99205.59;;;11.10;50.05
20710;BME280;10516;51.518;9.864;2023-04-27T11:22:22;99202.59;;;11.23;50.45
20710;BME280;10516;51.518;9.864;2023-04-27T11:24:48;99198.78;;;11.52;49.14
20710;BME280;10516;51.518;9.864;2023-04-27T11:27:14;99195.03;;;11.70;48.80
20710;BME280;10516;51.518;9.864;2023-04-27T11:29:39;99192.47;;;11.96;47.98
20710;BME280;10516;51.518;9.864;2023-04-27T11:32:05;99192.69;;;12.38;47.73
20710;BME280;10516;51.518;9.864;2023-04-27T11:34:31;99187.44;;;12.75;47.39
20710;BME280;10516;51.518;9.864;2023-04-27T11:37:04;99196.41;;;12.91;47.83
20710;BME280;10516;51.518;9.864;2023-04-27T11:39:33;99183.88;;;13.28;44.88
20710;BME280;10516;51.518;9.864;2023-04-27T11:42:16;99188.88;;;12.34;42.76
20710;BME280;10516;51.518;9.864;2023-04-27T11:44:42;99195.16;;;13.35;47.41
20710;BME280;10516;51.518;9.864;2023-04-27T11:47:16;99189.19;;;13.23;45.69
20710;BME280;10516;51.518;9.864;2023-04-27T11:50:04;99170.00;;;13.88;45.81
20710;BME280;10516;51.518;9.864;2023-04-27T11:52:35;99163.72;;;14.24;44.10
20710;BME280;10516;51.518;9.864;2023-04-27T11:55:01;99166.22;;;13.37;43.27
20710;BME280;10516;51.518;9.864;2023-04-27T11:57:32;99164.47;;;14.14;42.41
20710;BME280;10516;51.518;9.864;2023-04-27T11:59:58;99160.88;;;13.94;41.35
20710;BME280;10516;51.518;9.864;2023-04-27T12:02:24;99163.59;;;13.99;41.94
20710;BME280;10516;51.518;9.864;2023-04-27T12:04:50;99165.09;;;13.75;42.23
20710;BME280;10516;51.518;9.864;2023-04-27T12:07:18;99160.47;;;13.18;42.88
20710;BME280;10516;51.518;9.864;2023-04-27T12:09:45;99157.75;;;13.13;43.45
20710;BME280;10516;51.518;9.864;2023-04-27T12:12:11;99158.22;;;12.20;42.78
20710;BME280;10516;51.518;9.864;2023-04-27T12:14:42;99163.09;;;12.82;42.94
20710;BME280;10516;51.518;9.864;2023-04-27T12:17:07;99154.94;;;13.35;43.09
20710;BME280;10516;51.518;9.864;2023-04-27T12:19:32;99157.69;;;12.76;42.75
20710;BME280;10516;51.518;9.864;2023-04-27T12:21:58;99152.81;;;12.68;43.63
20710;BME280;10516;51.518;9.864;2023-04-27T12:24:23;99154.06;;;12.61;43.82
20710;BME280;10516;51.518;9.864;2023-04-27T12:26:48;99156.06;;;12.44;44.06
20710;BME280;10516;51.518;9.864;2023-04-27T12:29:14;99144.91;;;13.15;45.95
20710;BME280;10516;51.518;9.864;2023-04-27T12:31:39;99139.47;;;13.47;44.21
20710;BME280;10516;51.518;9.864;2023-04-27T12:34:05;99143.38;;;13.71;43.55
20710;BME280;10516;51.518;9.864;2023-04-27T12:36:30;99148.44;;;13.68;42.61
20710;BME280;10516;51.518;9.864;2023-04-27T12:38:57;99144.66;;;13.64;42.05
20710;BME280;10516;51.518;9.864;2023-04-27T12:41:23;99148.28;;;13.94;41.96
20710;BME280;10516;51.518;9.864;2023-04-27T12:43:49;99140.75;;;13.86;42.67
20710;BME280;10516;51.518;9.864;2023-04-27T12:46:14;99148.91;;;13.13;42.16
20710;BME280;10516;51.518;9.864;2023-04-27T12:48:40;99143.00;;;13.11;44.02
20710;BME280;10516;51.518;9.864;2023-04-27T12:51:05;99144.34;;;13.13;43.14
20710;BME280;10516;51.518;9.864;2023-04-27T12:53:31;99151.19;;;12.99;42.93
20710;BME280;10516;51.518;9.864;2023-04-27T12:55:56;99148.63;;;13.09;47.31
20710;BME280;10516;51.518;9.864;2023-04-27T12:58:22;99143.06;;;12.89;42.85
20710;BME280;10516;51.518;9.864;2023-04-27T13:00:47;99139.22;;;13.07;43.32
20710;BME280;10516;51.518;9.864;2023-04-27T13:03:12;99143.03;;;12.84;44.98
20710;BME280;10516;51.518;9.864;2023-04-27T13:05:38;99140.31;;;13.52;45.91